Time;durP1;ratioP1;P1;durP2;ratioP2;P2;SDS_P1;SDS_P2;PMS_P1;PMS_P2;Temp;Humidity;BMP_temperature;BMP_pressure;BME280_temperature;BME280_humidity;BME280_pressure;Samples;Min_cycle;Max_cycle;Signal;HPM_P1;HPM_P2
2023/08/31 00:02:11;;;;;;;12.33;10.17;;;14.40;99.90;;;;;;5115771;28;20228;-53
2023/08/31 00:04:37;;;;;;;12.33;10.10;;;14.40;99.90;;;;;;5115247;28;20674;-54
2023/08/31 00:07:03;;;;;;;13.40;10.50;;;14.30;97.50;;;;;;5115683;28;20273;-53
2023/08/31 00:09:29;;;;;;;16.03;10.50;;;14.30;99.90;;;;;;5115579;28;20184;-52
2023/08/31 00:11:56;;;;;;;14.23;10.70;;;14.20;6.90;;;;;;5115400;28;20623;-52
2023/08/31 00:14:22;;;;;;;13.97;10.03;;;14.20;57.00;;;;;;5115379;28;20919;-53
2023/08/31 00:16:48;;;;;;;12.90;10.47;;;14.10;99.90;;;;;;5115296;28;20421;-52
2023/08/31 00:19:14;;;;;;;12.63;10.07;;;14.10;1.00;;;;;;5115603;28;20414;-52
2023/08/31 00:21:40;;;;;;;14.33;10.87;;;14.00;99.90;;;;;;5114854;28;20329;-53
2023/08/31 00:24:07;;;;;;;13.80;9.90;;;14.00;99.90;;;;;;5115208;28;20540;-53
2023/08/31 00:26:33;;;;;;;14.30;10.30;;;14.00;99.90;;;;;;5115010;28;20211;-53
2023/08/31 00:28:59;;;;;;;12.20;9.47;;;14.00;99.90;;;;;;5115717;28;20425;-53
2023/08/31 00:31:24;;;;;;;14.50;10.30;;;14.00;1.00;;;;;;5114968;28;20416;-53
2023/08/31 00:33:50;;;;;;;14.97;9.93;;;14.00;1.00;;;;;;5115031;28;20191;-52
2023/08/31 00:36:18;;;;;;;12.33;9.63;;;14.00;99.90;;;;;;5115383;28;20185;-53
2023/08/31 00:38:43;;;;;;;13.80;10.10;;;14.00;99.90;;;;;;5115020;28;20179;-52
2023/08/31 00:41:09;;;;;;;14.20;9.70;;;13.90;99.90;;;;;;5114605;28;20436;-53
2023/08/31 00:43:34;;;;;;;12.77;8.83;;;13.80;35.80;;;;;;5114933;28;20208;-53
2023/08/31 00:46:00;;;;;;;11.47;9.10;;;13.70;99.90;;;;;;5115043;28;20184;-52
2023/08/31 00:48:26;;;;;;;13.60;10.20;;;13.70;99.90;;;;;;5114729;28;20614;-53
2023/08/31 00:50:52;;;;;;;11.70;9.17;;;13.70;1.00;;;;;;5114711;28;20449;-52
2023/08/31 00:53:18;;;;;;;13.93;9.20;;;13.70;99.90;;;;;;5115157;28;20184;-52
2023/08/31 00:55:45;;;;;;;9.70;8.30;;;13.70;1.00;;;;;;5115020;28;20271;-53
2023/08/31 00:58:11;;;;;;;14.00;10.60;;;13.70;1.00;;;;;;5114866;28;20418;-52
2023/08/31 01:01:15;;;;;;;15.30;9.80;;;13.70;1.00;;;;;;5114713;28;20898;-53
2023/08/31 01:03:54;;;;;;;12.97;10.50;;;13.60;99.90;;;;;;5114220;28;20476;-52
2023/08/31 01:06:35;;;;;;;11.47;9.83;;;13.50;99.90;;;;;;5114707;28;20831;-53
2023/08/31 01:09:25;;;;;;;12.37;9.57;;;13.50;99.90;;;;;;5114510;28;20435;-52
2023/08/31 01:12:04;;;;;;;12.07;8.93;;;13.50;1.00;;;;;;5114423;28;20405;-52
2023/08/31 01:14:47;;;;;;;16.27;10.40;;;13.40;1.00;;;;;;5114285;28;20394;-52
2023/08/31 01:17:14;;;;;;;14.60;9.97;;;13.40;1.00;;;;;;5114695;28;20497;-52
2023/08/31 01:19:40;;;;;;;12.63;9.70;;;13.30;1.00;;;;;;5114541;28;20414;-51
2023/08/31 01:22:11;;;;;;;14.80;10.93;;;13.30;99.90;;;;;;5114277;28;20477;-51
2023/08/31 01:24:37;;;;;;;12.07;10.30;;;13.20;1.00;;;;;;5114145;28;20249;-51
2023/08/31 01:27:03;;;;;;;17.50;9.57;;;13.20;1.00;;;;;;5114469;28;20437;-52
2023/08/31 01:29:30;;;;;;;12.73;10.23;;;13.20;1.00;;;;;;5113791;28;20922;-51
2023/08/31 01:31:56;;;;;;;12.60;9.30;;;13.20;1.00;;;;;;5114028;28;20418;-52
2023/08/31 01:34:21;;;;;;;13.40;10.10;;;13.20;1.00;;;;;;5114433;28;20432;-52
2023/08/31 01:36:55;;;;;;;12.97;8.73;;;13.10;1.00;;;;;;5113926;28;20201;-51
2023/08/31 01:39:34;;;;;;;11.50;8.23;;;13.10;30.90;;;;;;5113976;28;20178;-53
2023/08/31 01:42:04;;;;;;;18.90;11.10;;;13.20;99.90;;;;;;5114402;28;20497;-52
2023/08/31 01:44:32;;;;;;;13.13;9.43;;;13.20;99.90;;;;;;5113783;28;20829;-51
2023/08/31 01:47:06;;;;;;;12.27;8.93;;;13.20;1.00;;;;;;5114312;28;20418;-52
2023/08/31 01:49:39;;;;;;;10.60;8.00;;;13.20;29.10;;;;;;5114082;28;20398;-52
2023/08/31 01:52:05;;;;;;;9.70;7.57;;;13.20;47.60;;;;;;5114183;28;20418;-52
2023/08/31 01:54:31;;;;;;;12.60;9.80;;;13.30;85.80;;;;;;5114047;28;20420;-51
2023/08/31 01:56:57;;;;;;;12.60;8.50;;;13.20;1.00;;;;;;5113607;28;20496;-52
2023/08/31 01:59:23;;;;;;;14.10;8.67;;;13.20;1.00;;;;;;5113990;28;20421;-53
2023/08/31 02:01:48;;;;;;;12.20;9.20;;;13.10;1.00;;;;;;5113671;28;20176;-52
2023/08/31 02:04:14;;;;;;;16.07;10.90;;;13.10;1.00;;;;;;5114093;28;20250;-51
2023/08/31 02:06:39;;;;;;;16.73;10.30;;;13.10;1.00;;;;;;5113882;28;20176;-53
2023/08/31 02:09:06;;;;;;;13.23;10.00;;;13.10;1.00;;;;;;5113612;28;20187;-53
2023/08/31 02:11:35;;;;;;;11.70;9.70;;;13.00;1.00;;;;;;5113793;28;20221;-52
2023/08/31 02:14:00;;;;;;;12.60;8.83;;;13.00;12.90;;;;;;5117979;28;20443;-53
2023/08/31 02:16:26;;;;;;;14.20;9.93;;;13.10;92.50;;;;;;5117887;28;20408;-52
2023/08/31 02:18:51;;;;;;;16.00;10.47;;;13.10;1.00;;;;;;5117820;28;20179;-52
2023/08/31 02:21:17;;;;;;;11.67;9.57;;;13.10;44.10;;;;;;5118026;28;20189;-52
2023/08/31 02:23:42;;;;;;;12.47;9.73;;;13.10;39.50;;;;;;5117521;28;20240;-52
2023/08/31 02:26:08;;;;;;;11.10;7.77;;;13.10;1.00;;;;;;5117901;28;20183;-52
2023/08/31 02:28:33;;;;;;;11.80;10.57;;;13.10;48.10;;;;;;5117639;28;20184;-52
2023/08/31 02:31:02;;;;;;;12.20;9.23;;;13.10;1.00;;;;;;5117231;28;20180;-52
2023/08/31 02:33:27;;;;;;;13.57;8.10;;;13.10;18.80;;;;;;5117853;28;20184;-52
2023/08/31 02:35:54;;;;;;;9.87;8.40;;;13.00;1.00;;;;;;5117333;28;20415;-52
2023/08/31 02:38:20;;;;;;;11.10;8.83;;;13.00;1.00;;;;;;5117320;28;20619;-52
2023/08/31 02:40:47;;;;;;;12.40;8.97;;;13.00;1.00;;;;;;5117163;28;20493;-52
2023/08/31 02:43:13;;;;;;;16.67;9.20;;;12.90;1.00;;;;;;5117022;28;20211;-52
2023/08/31 02:45:38;;;;;;;13.27;9.70;;;13.00;1.00;;;;;;5117348;28;20428;-52
2023/08/31 02:48:06;;;;;;;11.90;8.33;;;13.00;1.00;;;;;;5117492;28;20427;-52
2023/08/31 02:50:32;;;;;;;12.17;7.73;;;12.80;1.00;;;;;;5117307;28;20186;-52
2023/08/31 02:52:57;;;;;;;13.63;8.90;;;12.80;1.00;;;;;;5117408;28;20793;-52
2023/08/31 02:55:23;;;;;;;14.03;8.50;;;12.80;1.00;;;;;;5117210;28;20191;-52
2023/08/31 02:57:49;;;;;;;11.13;8.20;;;12.70;1.00;;;;;;5117197;28;20176;-52
2023/08/31 03:00:15;;;;;;;12.53;8.80;;;12.70;1.00;;;;;;5116843;28;20188;-52
2023/08/31 03:02:41;;;;;;;10.40;7.57;;;12.70;1.00;;;;;;5117082;28;20437;-53
2023/08/31 03:05:06;;;;;;;10.50;8.30;;;12.70;1.00;;;;;;5098863;28;20414;-51
2023/08/31 03:07:32;;;;;;;12.93;8.70;;;12.60;1.00;;;;;;5116943;28;20183;-50
2023/08/31 03:09:58;;;;;;;9.40;7.33;;;12.60;1.00;;;;;;5116893;28;20737;-51
2023/08/31 03:12:23;;;;;;;9.97;8.30;;;12.50;1.00;;;;;;5116778;28;20180;-51
2023/08/31 03:14:49;;;;;;;11.70;8.70;;;12.60;39.00;;;;;;5117038;28;20638;-51
2023/08/31 03:17:14;;;;;;;15.73;8.33;;;12.60;73.50;;;;;;5116907;28;20190;-51
2023/08/31 03:19:41;;;;;;;12.83;6.80;;;12.70;62.20;;;;;;5116882;28;20210;-51
2023/08/31 03:22:06;;;;;;;11.17;8.73;;;12.60;1.00;;;;;;5116313;28;20239;-52
2023/08/31 03:24:35;;;;;;;14.03;8.40;;;12.50;1.00;;;;;;5115196;28;20514;-52
2023/08/31 03:27:00;;;;;;;9.47;8.00;;;12.50;1.00;;;;;;5116872;28;20175;-53
2023/08/31 03:29:28;;;;;;;10.77;7.87;;;12.40;99.90;;;;;;5116442;28;20758;-51
2023/08/31 03:31:54;;;;;;;11.57;8.20;;;12.30;1.00;;;;;;5116417;28;20406;-52
2023/08/31 03:34:20;;;;;;;11.57;8.07;;;12.30;1.00;;;;;;5116836;28;20435;-52
2023/08/31 03:36:46;;;;;;;12.93;6.50;;;12.30;1.00;;;;;;5116654;28;20425;-52
2023/08/31 03:39:11;;;;;;;13.40;8.30;;;12.30;7.50;;;;;;5116447;28;20559;-51
2023/08/31 03:41:37;;;;;;;11.27;7.17;;;12.30;1.00;;;;;;5116469;28;20205;-51
2023/08/31 03:44:02;;;;;;;11.00;7.67;;;12.20;1.00;;;;;;5116184;28;20245;-51
2023/08/31 03:46:28;;;;;;;12.37;8.13;;;12.20;1.00;;;;;;5116508;28;20189;-51
2023/08/31 03:48:54;;;;;;;10.23;6.87;;;12.20;1.00;;;;;;5116196;28;20273;-50
2023/08/31 03:51:19;;;;;;;8.80;7.07;;;12.20;1.00;;;;;;5116129;28;20622;-50
2023/08/31 03:53:45;;;;;;;10.07;7.80;;;12.10;1.00;;;;;;5115902;28;20183;-51
2023/08/31 03:56:11;;;;;;;7.00;6.00;;;12.10;1.00;;;;;;5116139;28;20178;-51
2023/08/31 03:58:36;;;;;;;9.83;6.70;;;12.10;1.00;;;;;;5115962;28;20185;-51
2023/08/31 04:01:03;;;;;;;12.30;6.17;;;12.10;1.00;;;;;;5116060;28;20412;-50
2023/08/31 04:03:28;;;;;;;7.80;5.97;;;12.10;1.00;;;;;;5115973;28;20210;-52
2023/08/31 04:05:57;;;;;;;8.83;6.60;;;12.20;1.00;;;;;;5116063;28;20723;-52
2023/08/31 04:08:23;;;;;;;7.70;6.33;;;12.10;1.00;;;;;;5115807;28;20185;-52
2023/08/31 04:10:48;;;;;;;13.37;7.33;;;12.10;1.00;;;;;;5116027;28;20411;-54
2023/08/31 04:13:14;;;;;;;12.50;6.97;;;12.10;1.00;;;;;;5115706;28;20269;-52
2023/08/31 04:15:40;;;;;;;13.23;7.27;;;12.00;1.00;;;;;;5115751;28;20544;-53
2023/08/31 04:18:05;;;;;;;7.53;6.07;;;12.00;1.00;;;;;;5115458;28;20175;-50
2023/08/31 04:20:33;;;;;;;9.43;6.13;;;12.00;1.00;;;;;;5115687;28;20274;-50
2023/08/31 04:22:58;;;;;;;10.33;6.37;;;12.00;1.00;;;;;;5115192;28;20265;-51
2023/08/31 04:25:24;;;;;;;21.27;6.67;;;11.90;1.00;;;;;;5115099;28;20474;-51
2023/08/31 04:27:49;;;;;;;10.63;6.60;;;11.90;1.00;;;;;;5115231;28;20187;-51
2023/08/31 04:30:15;;;;;;;11.43;7.80;;;11.90;1.00;;;;;;5115420;28;20200;-52
2023/08/31 04:32:41;;;;;;;11.10;6.47;;;11.90;1.00;;;;;;5115549;28;20223;-53
2023/08/31 04:35:07;;;;;;;13.73;6.70;;;11.90;1.00;;;;;;5114817;28;20439;-52
2023/08/31 04:37:33;;;;;;;9.10;6.97;;;11.90;1.00;;;;;;5115045;28;20179;-51
2023/08/31 04:39:59;;;;;;;11.73;6.97;;;11.80;1.00;;;;;;5115275;28;20201;-52
2023/08/31 04:42:24;;;;;;;11.60;7.07;;;11.80;1.00;;;;;;5115256;28;21316;-51
2023/08/31 04:44:50;;;;;;;15.70;7.67;;;11.80;1.00;;;;;;5115328;28;20206;-52
2023/08/31 04:47:16;;;;;;;12.30;7.63;;;11.80;1.00;;;;;;5115280;28;20264;-52
2023/08/31 04:49:42;;;;;;;10.00;7.77;;;11.80;1.00;;;;;;5115128;28;20631;-51
2023/08/31 04:52:08;;;;;;;14.97;7.90;;;11.80;99.90;;;;;;5114960;28;20205;-53
2023/08/31 04:54:34;;;;;;;13.13;7.50;;;11.80;99.90;;;;;;5115173;28;20445;-52
2023/08/31 04:56:59;;;;;;;11.70;7.57;;;11.70;99.90;;;;;;5114675;28;20669;-53
2023/08/31 04:59:25;;;;;;;10.93;7.03;;;11.80;1.00;;;;;;5114833;28;20181;-52
2023/08/31 05:01:50;;;;;;;7.50;6.70;;;11.80;1.00;;;;;;5114909;28;20183;-53
2023/08/31 05:04:16;;;;;;;11.93;6.60;;;12.00;99.90;;;;;;5114775;28;20302;-52
2023/08/31 05:06:41;;;;;;;11.50;6.40;;;12.00;38.70;;;;;;5114854;28;20562;-52
2023/08/31 05:09:08;;;;;;;12.10;7.63;;;12.00;1.00;;;;;;5114496;28;20178;-53
2023/08/31 05:11:33;;;;;;;11.40;7.80;;;12.00;99.90;;;;;;5114852;28;20263;-53
2023/08/31 05:13:59;;;;;;;18.80;7.00;;;11.90;99.90;;;;;;5114431;28;20439;-53
2023/08/31 05:16:24;;;;;;;17.00;6.97;;;11.90;99.90;;;;;;5114483;28;20179;-52
2023/08/31 05:18:50;;;;;;;14.70;7.23;;;11.90;1.00;;;;;;5114332;28;20629;-52
2023/08/31 05:21:16;;;;;;;10.00;6.33;;;11.90;99.90;;;;;;5114429;28;20184;-53
2023/08/31 05:23:41;;;;;;;14.33;6.90;;;11.90;99.90;;;;;;5114160;28;20569;-52
2023/08/31 05:26:07;;;;;;;10.17;7.10;;;11.90;99.90;;;;;;5114263;28;20186;-52
2023/08/31 05:28:32;;;;;;;10.27;6.70;;;12.00;99.90;;;;;;5114485;28;20179;-52
2023/08/31 05:31:05;;;;;;;9.50;6.83;;;11.90;94.30;;;;;;5113989;28;20529;-53
2023/08/31 05:33:33;;;;;;;10.23;6.53;;;11.90;99.90;;;;;;5114800;28;20182;-53
2023/08/31 05:36:02;;;;;;;13.30;7.70;;;11.90;99.90;;;;;;5114356;28;20420;-52
2023/08/31 05:38:27;;;;;;;9.70;7.40;;;12.00;99.90;;;;;;5114170;28;20445;-52
2023/08/31 05:40:53;;;;;;;11.43;7.40;;;12.00;99.90;;;;;;5114106;28;20415;-51
2023/08/31 05:43:18;;;;;;;12.83;7.67;;;12.00;99.90;;;;;;5113646;28;20210;-52
2023/08/31 05:45:44;;;;;;;10.07;6.30;;;12.00;99.90;;;;;;5114630;28;20277;-53
2023/08/31 05:48:09;;;;;;;9.10;7.03;;;12.10;25.40;;;;;;5113428;28;20178;-53
2023/08/31 05:50:38;;;;;;;18.07;7.93;;;12.10;99.90;;;;;;5114227;28;20283;-53
2023/08/31 05:53:05;;;;;;;10.90;6.73;;;12.10;1.00;;;;;;5114338;28;20227;-52
2023/08/31 05:55:31;;;;;;;9.70;6.10;;;12.20;1.00;;;;;;5113912;28;20428;-52
2023/08/31 05:57:57;;;;;;;9.97;6.80;;;12.20;99.90;;;;;;5114209;28;20504;-52
2023/08/31 06:00:23;;;;;;;11.17;6.00;;;12.30;99.90;;;;;;5113968;28;20551;-52
2023/08/31 06:02:48;;;;;;;15.20;6.83;;;12.30;99.90;;;;;;5114105;28;20639;-53
2023/08/31 06:05:16;;;;;;;9.43;6.33;;;12.40;1.00;;;;;;5115030;28;20194;-52
2023/08/31 06:07:42;;;;;;;10.63;6.07;;;12.60;99.90;;;;;;5114399;28;20319;-53
2023/08/31 06:10:08;;;;;;;12.97;5.47;;;12.80;1.00;;;;;;5113803;28;20421;-53
2023/08/31 06:12:34;;;;;;;10.83;5.80;;;12.90;99.90;;;;;;5113805;28;20498;-53
2023/08/31 06:15:00;;;;;;;10.10;6.07;;;13.00;99.90;;;;;;5113740;28;20218;-53
2023/08/31 06:17:26;;;;;;;9.53;5.70;;;13.30;1.00;;;;;;5114039;28;20175;-52
2023/08/31 06:19:51;;;;;;;8.27;5.00;;;13.50;1.00;;;;;;5113879;28;20471;-53
2023/08/31 06:22:18;;;;;;;17.70;5.97;;;13.60;1.00;;;;;;5113407;28;20473;-53
2023/08/31 06:24:45;;;;;;;10.97;5.53;;;13.70;99.90;;;;;;5113904;28;20273;-53
2023/08/31 06:27:12;;;;;;;8.00;5.53;;;13.80;99.90;;;;;;5113643;28;20462;-54
2023/08/31 06:29:38;;;;;;;9.33;5.20;;;13.90;1.00;;;;;;5113307;28;20440;-53
2023/08/31 06:32:03;;;;;;;7.80;5.00;;;13.90;1.50;;;;;;5113383;28;20904;-53
2023/08/31 06:34:30;;;;;;;12.10;5.90;;;13.90;74.50;;;;;;5113478;28;20237;-53
2023/08/31 06:36:58;;;;;;;10.37;4.67;;;13.90;99.90;;;;;;5113786;28;20650;-54
2023/08/31 06:39:23;;;;;;;10.83;5.60;;;14.00;75.40;;;;;;5113565;28;20419;-52
2023/08/31 06:41:49;;;;;;;7.97;4.93;;;14.10;1.00;;;;;;5113285;28;20940;-52
2023/08/31 06:44:15;;;;;;;10.87;5.10;;;14.20;1.00;;;;;;5113512;28;20215;-53
2023/08/31 06:46:40;;;;;;;12.70;5.63;;;14.40;1.00;;;;;;5113250;28;20195;-53
2023/08/31 06:49:06;;;;;;;9.20;5.17;;;14.60;1.00;;;;;;5113577;28;20191;-53
2023/08/31 06:51:32;;;;;;;10.45;5.22;;;14.70;99.90;;;;;;5113036;28;20395;-53
2023/08/31 06:54:05;;;;;;;5.20;4.70;;;14.70;99.90;;;;;;5113584;28;20176;-53
2023/08/31 06:56:34;;;;;;;10.80;4.60;;;14.60;99.90;;;;;;5113684;28;20418;-52
2023/08/31 06:59:00;;;;;;;5.77;4.10;;;14.80;99.90;;;;;;5115375;28;20950;-53
2023/08/31 07:01:28;;;;;;;4.90;4.10;;;15.00;99.90;;;;;;5116216;28;20413;-53
2023/08/31 07:03:53;;;;;;;5.73;4.07;;;15.20;99.90;;;;;;5099210;28;20213;-53
2023/08/31 07:06:19;;;;;;;7.40;4.15;;;15.50;99.90;;;;;;5116021;28;20423;-53
2023/08/31 07:08:45;;;;;;;6.53;3.73;;;15.60;70.40;;;;;;5117295;28;20223;-53
2023/08/31 07:11:11;;;;;;;9.30;4.20;;;15.60;80.00;;;;;;5116691;28;20210;-54
2023/08/31 07:13:37;;;;;;;7.10;3.70;;;15.80;66.20;;;;;;5116934;28;20475;-54
2023/08/31 07:16:02;;;;;;;7.03;3.70;;;16.00;13.90;;;;;;5116392;28;20413;-53
2023/08/31 07:18:28;;;;;;;7.33;3.70;;;16.10;1.00;;;;;;5116329;28;20252;-55
2023/08/31 07:20:54;;;;;;;4.87;3.40;;;16.40;21.30;;;;;;5116681;28;20184;-53
2023/08/31 07:23:19;;;;;;;8.63;3.13;;;16.70;1.00;;;;;;5115922;28;20779;-53
2023/08/31 07:25:45;;;;;;;6.20;3.40;;;17.00;1.00;;;;;;5116324;28;20187;-53
2023/08/31 07:28:11;;;;;;;5.93;2.83;;;17.00;1.00;;;;;;5116702;28;20237;-54
2023/08/31 07:30:37;;;;;;;7.47;3.30;;;17.20;1.00;;;;;;5116416;28;20258;-54
2023/08/31 07:33:03;;;;;;;7.83;2.90;;;17.40;1.00;;;;;;5116604;28;20191;-54
2023/08/31 07:35:30;;;;;;;6.03;3.27;;;17.80;1.00;;;;;;5116645;28;20410;-53
2023/08/31 07:37:55;;;;;;;4.63;3.03;;;17.80;1.00;;;;;;5116362;28;20422;-54
2023/08/31 07:40:21;;;;;;;7.00;2.60;;;18.00;1.00;;;;;;5116214;28;20775;-55
2023/08/31 07:42:46;;;;;;;4.30;2.50;;;18.20;1.00;;;;;;5116277;28;20179;-53
2023/08/31 07:45:12;;;;;;;4.40;2.57;;;18.50;1.00;;;;;;5116309;28;20181;-53
2023/08/31 07:47:38;;;;;;;5.73;2.87;;;18.90;1.00;;;;;;5116367;28;20609;-55
2023/08/31 07:50:04;;;;;;;4.47;2.60;;;18.90;1.00;;;;;;5116621;28;20226;-53
2023/08/31 07:52:29;;;;;;;4.30;2.87;;;18.90;1.00;;;;;;5116111;28;20182;-54
2023/08/31 07:54:55;;;;;;;4.27;2.60;;;18.70;1.00;;;;;;5116037;28;20446;-53
2023/08/31 07:57:21;;;;;;;5.37;2.60;;;18.50;1.00;;;;;;5116054;28;20186;-54
2023/08/31 07:59:46;;;;;;;2.70;2.50;;;18.70;1.00;;;;;;5115806;28;20185;-54
2023/08/31 08:02:12;;;;;;;5.40;3.00;;;18.60;1.00;;;;;;5115871;28;20412;-54
2023/08/31 08:04:38;;;;;;;4.47;3.13;;;18.10;1.00;;;;;;5115605;28;20215;-54
2023/08/31 08:07:03;;;;;;;4.40;2.90;;;18.00;1.00;;;;;;5115643;28;20179;-53
2023/08/31 08:09:32;;;;;;;5.53;3.30;;;18.50;1.00;;;;;;5115439;28;20293;-54
2023/08/31 08:11:58;;;;;;;5.83;3.47;;;19.00;1.00;;;;;;5115386;28;20182;-54
2023/08/31 08:14:23;;;;;;;5.83;3.60;;;19.00;1.00;;;;;;5096829;28;20466;-55
2023/08/31 08:16:49;;;;;;;7.17;3.53;;;18.90;1.00;;;;;;5115368;28;20182;-53
2023/08/31 08:19:21;;;;;;;7.37;4.27;;;18.50;1.00;;;;;;5115236;28;20644;-54
2023/08/31 08:21:47;;;;;;;5.57;3.80;;;17.80;1.00;;;;;;5115140;28;20238;-53
2023/08/31 08:24:12;;;;;;;8.50;3.57;;;17.30;1.00;;;;;;5115311;28;20468;-53
2023/08/31 08:26:38;;;;;;;5.20;3.37;;;17.50;1.00;;;;;;5115555;28;20253;-54
2023/08/31 08:29:04;;;;;;;5.10;2.80;;;18.00;1.00;;;;;;5115078;28;20515;-54
2023/08/31 08:31:29;;;;;;;5.77;3.00;;;18.60;1.00;;;;;;5115050;28;20578;-55
2023/08/31 08:33:55;;;;;;;7.40;2.90;;;19.20;1.00;;;;;;5115539;28;20197;-54
2023/08/31 08:36:20;;;;;;;5.00;2.57;;;19.50;1.00;;;;;;5115064;28;20177;-54
2023/08/31 08:38:46;;;;;;;5.23;2.70;;;19.20;1.00;;;;;;5115309;28;20191;-55
2023/08/31 08:41:12;;;;;;;8.20;3.20;;;19.40;1.00;;;;;;5115252;28;20265;-53
2023/08/31 08:43:43;;;;;;;3.97;2.90;;;19.00;1.00;;;;;;5115044;28;20599;-54
2023/08/31 08:46:09;;;;;;;4.43;3.20;;;18.40;1.00;;;;;;5115358;28;20402;-54
2023/08/31 08:48:36;;;;;;;6.20;3.60;;;17.90;1.00;;;;;;5115380;28;20415;-53
2023/08/31 08:51:03;;;;;;;4.90;3.57;;;17.40;1.00;;;;;;5114887;28;20939;-54
2023/08/31 08:53:29;;;;;;;4.93;3.30;;;17.20;1.00;;;;;;5115339;28;20773;-53
2023/08/31 08:55:55;;;;;;;6.80;3.80;;;17.10;1.00;;;;;;5115101;28;20415;-53
2023/08/31 08:58:20;;;;;;;8.33;4.23;;;17.00;1.00;;;;;;5114817;28;20640;-54
2023/08/31 09:00:47;;;;;;;5.33;4.00;;;17.10;1.00;;;;;;5114838;28;20191;-55
2023/08/31 09:03:13;;;;;;;8.40;4.90;;;17.20;1.00;;;;;;5114810;28;20215;-54
2023/08/31 09:05:39;;;;;;;8.67;3.80;;;17.10;1.00;;;;;;5114954;28;20409;-53
2023/08/31 09:08:09;;;;;;;7.37;3.73;;;16.90;1.00;;;;;;5114652;28;20271;-54
2023/08/31 09:10:41;;;;;;;7.57;3.50;;;16.60;1.00;;;;;;5114767;28;20261;-53
2023/08/31 09:13:11;;;;;;;4.07;3.13;;;16.60;1.00;;;;;;5114212;28;20771;-53
2023/08/31 09:15:45;;;;;;;8.13;4.07;;;16.50;1.00;;;;;;5114783;28;20415;-54
2023/08/31 09:18:32;;;;;;;7.20;4.10;;;16.30;1.00;;;;;;5114449;28;20844;-53
2023/08/31 09:20:58;;;;;;;7.10;4.20;;;16.10;1.00;;;;;;5113559;28;20451;-54
2023/08/31 09:23:24;;;;;;;4.97;4.37;;;15.90;1.00;;;;;;5113572;28;20873;-54
2023/08/31 09:25:54;;;;;;;7.90;3.90;;;15.70;1.00;;;;;;5114519;28;20184;-54
2023/08/31 09:28:28;;;;;;;6.03;4.47;;;15.60;1.00;;;;;;5114538;28;20886;-54
2023/08/31 09:31:04;;;;;;;9.70;4.87;;;15.40;1.00;;;;;;5114529;28;20415;-53
2023/08/31 09:33:30;;;;;;;4.13;3.73;;;15.30;1.00;;;;;;5114298;28;20393;-53
2023/08/31 09:35:59;;;;;;;11.80;4.47;;;15.30;15.80;;;;;;5113958;28;20425;-53
2023/08/31 09:38:25;;;;;;;14.27;4.03;;;15.50;31.20;;;;;;5114079;28;20450;-53
2023/08/31 09:40:51;;;;;;;8.13;4.13;;;15.60;20.20;;;;;;5114251;28;20413;-54
2023/08/31 09:43:22;;;;;;;7.83;4.63;;;15.70;14.00;;;;;;5113867;28;20496;-53
2023/08/31 09:45:48;;;;;;;8.17;4.93;;;15.80;1.00;;;;;;5113859;28;20619;-53
2023/08/31 09:48:15;;;;;;;5.80;4.70;;;15.80;1.00;;;;;;5113681;28;20500;-54
2023/08/31 09:50:44;;;;;;;7.70;4.47;;;15.80;1.00;;;;;;5114226;28;20421;-55
2023/08/31 09:53:12;;;;;;;5.90;3.83;;;15.90;1.00;;;;;;5114352;28;20415;-54
2023/08/31 09:55:40;;;;;;;5.13;3.93;;;15.90;1.00;;;;;;5113852;28;20931;-53
2023/08/31 09:58:07;;;;;;;5.50;3.90;;;16.00;1.00;;;;;;5113890;28;20417;-54
2023/08/31 10:00:36;;;;;;;8.50;4.10;;;16.20;1.00;;;;;;5114257;28;20467;-53
2023/08/31 10:03:05;;;;;;;6.70;4.10;;;16.60;1.00;;;;;;5113848;28;20506;-56
2023/08/31 10:05:32;;;;;;;5.37;4.70;;;17.20;1.00;;;;;;5113738;28;20410;-53
2023/08/31 10:07:58;;;;;;;4.53;4.13;;;17.80;1.00;;;;;;5113994;28;20469;-54
2023/08/31 10:10:24;;;;;;;7.17;4.70;;;18.10;1.00;;;;;;5114046;28;20417;-53
2023/08/31 10:12:51;;;;;;;7.90;4.27;;;18.30;1.00;;;;;;5113592;28;20644;-54
2023/08/31 10:15:19;;;;;;;7.10;4.80;;;18.10;1.00;;;;;;5114044;28;20456;-53
2023/08/31 10:17:45;;;;;;;8.43;4.37;;;18.00;1.00;;;;;;5113607;28;20891;-53
2023/08/31 10:20:14;;;;;;;8.73;4.77;;;17.80;1.00;;;;;;5114047;28;20414;-54
2023/08/31 10:22:39;;;;;;;9.57;4.90;;;17.70;1.00;;;;;;5113164;28;20472;-54
2023/08/31 10:25:06;;;;;;;7.13;4.27;;;17.70;1.00;;;;;;5113363;28;20462;-53
2023/08/31 10:27:40;;;;;;;7.93;4.83;;;18.10;1.00;;;;;;5113435;28;20711;-53
2023/08/31 10:30:21;;;;;;;4.93;4.40;;;18.90;1.00;;;;;;5113912;28;20417;-54
2023/08/31 10:33:10;;;;;;;5.43;4.50;;;19.80;1.00;;;;;;5113620;28;20911;-53
2023/08/31 10:35:49;;;;;;;4.67;4.10;;;20.20;1.00;;;;;;5105842;28;20435;-54
2023/08/31 10:38:15;;;;;;;6.47;4.60;;;20.60;1.00;;;;;;5116961;28;20436;-53
2023/08/31 10:40:41;;;;;;;6.17;4.63;;;20.40;1.00;;;;;;5117482;28;20421;-54
2023/08/31 10:43:16;;;;;;;5.40;4.23;;;20.50;1.00;;;;;;5117360;28;20836;-54
2023/08/31 10:45:45;;;;;;;3.63;3.33;;;21.00;1.00;;;;;;5117690;28;20183;-54
2023/08/31 10:48:11;;;;;;;4.90;3.93;;;21.70;1.00;;;;;;5116853;28;20478;-53
2023/08/31 10:50:42;;;;;;;5.33;4.20;;;21.60;1.00;;;;;;5115986;28;20413;-53
2023/08/31 10:53:12;;;;;;;6.07;3.90;;;21.40;1.00;;;;;;5115740;28;20171;-53
2023/08/31 10:55:53;;;;;;;5.30;3.83;;;21.70;1.00;;;;;;5116522;28;20928;-54
2023/08/31 10:58:19;;;;;;;3.83;3.40;;;22.00;1.00;;;;;;5116234;28;20767;-53
2023/08/31 11:00:52;;;;;;;4.10;2.70;;;21.80;1.00;;;;;;5116957;28;20422;-53
2023/08/31 11:03:18;;;;;;;3.10;2.60;;;21.40;1.00;;;;;;5117268;28;20240;-54
2023/08/31 11:05:53;;;;;;;3.07;2.40;;;21.30;1.00;;;;;;5116505;28;20453;-53
2023/08/31 11:08:25;;;;;;;6.43;2.97;;;21.60;1.00;;;;;;5116945;28;20179;-54
2023/08/31 11:10:52;;;;;;;4.60;2.70;;;22.00;1.00;;;;;;5116595;28;20798;-53
2023/08/31 11:13:22;;;;;;;2.90;2.30;;;22.90;1.00;;;;;;5116927;28;20429;-53
2023/08/31 11:15:48;;;;;;;2.33;2.10;;;23.70;1.00;;;;;;5117030;28;20418;-53
2023/08/31 11:18:17;;;;;;;3.23;2.03;;;24.00;1.00;;;;;;5116896;28;20436;-54
2023/08/31 11:20:43;;;;;;;2.50;2.30;;;24.30;1.00;;;;;;5116697;28;20197;-53
2023/08/31 11:23:09;;;;;;;4.27;2.13;;;23.50;1.00;;;;;;5116198;28;21058;-53
2023/08/31 11:25:35;;;;;;;5.43;2.17;;;22.80;1.00;;;;;;5116874;28;20442;-53
2023/08/31 11:28:06;;;;;;;2.80;2.20;;;22.20;1.00;;;;;;5116618;28;20411;-53
2023/08/31 11:30:33;;;;;;;2.87;1.63;;;21.60;1.00;;;;;;5116485;28;20176;-54
2023/08/31 11:33:03;;;;;;;7.33;2.20;;;21.60;1.00;;;;;;5116285;28;20406;-54
2023/08/31 11:35:35;;;;;;;3.33;1.83;;;22.40;1.00;;;;;;5116813;28;20509;-53
2023/08/31 11:38:01;;;;;;;3.50;1.93;;;23.10;1.00;;;;;;5116533;28;20407;-53
2023/08/31 11:40:27;;;;;;;3.50;1.30;;;23.50;1.00;;;;;;5116259;28;20910;-53
2023/08/31 11:42:53;;;;;;;2.60;1.60;;;23.50;1.00;;;;;;5116004;28;20426;-52
2023/08/31 11:45:20;;;;;;;2.00;1.60;;;23.20;1.00;;;;;;5115490;28;20480;-53
2023/08/31 11:47:46;;;;;;;1.97;1.30;;;22.40;1.00;;;;;;5116159;28;20426;-54
2023/08/31 11:50:13;;;;;;;2.70;1.57;;;21.90;1.00;;;;;;5116112;28;20772;-53
2023/08/31 11:52:39;;;;;;;4.90;1.70;;;21.30;1.00;;;;;;5116324;28;20418;-53
2023/08/31 11:55:12;;;;;;;2.27;1.40;;;21.90;1.00;;;;;;5115822;28;20418;-53
2023/08/31 11:57:37;;;;;;;4.57;1.53;;;23.00;1.00;;;;;;5116055;28;20465;-52
2023/08/31 12:00:05;;;;;;;3.83;1.50;;;24.00;1.00;;;;;;5115844;28;20898;-53
2023/08/31 12:02:35;;;;;;;2.20;1.30;;;24.80;1.00;;;;;;5115883;28;20238;-53
2023/08/31 12:05:01;;;;;;;1.97;1.30;;;24.60;1.00;;;;;;5115891;28;20817;-53
2023/08/31 12:07:27;;;;;;;3.77;1.40;;;23.30;1.00;;;;;;5115563;28;20415;-53
2023/08/31 12:09:52;;;;;;;2.27;1.50;;;22.10;1.00;;;;;;5097148;28;20184;-53
2023/08/31 12:12:21;;;;;;;2.43;1.70;;;21.30;1.00;;;;;;5115900;28;20212;-53
2023/08/31 12:14:47;;;;;;;1.30;1.20;;;21.10;1.00;;;;;;5115672;28;20193;-54
2023/08/31 12:17:12;;;;;;;1.73;1.10;;;20.70;1.00;;;;;;5115457;28;20757;-53
2023/08/31 12:19:39;;;;;;;2.00;1.10;;;20.20;1.00;;;;;;5115763;28;20245;-53
2023/08/31 12:22:05;;;;;;;3.20;1.40;;;20.20;1.00;;;;;;5115075;28;20594;-54
2023/08/31 12:24:38;;;;;;;3.70;1.33;;;19.80;1.00;;;;;;5115150;28;20465;-52
2023/08/31 12:27:06;;;;;;;1.83;1.40;;;19.40;1.00;;;;;;5115522;28;20508;-54
2023/08/31 12:29:32;;;;;;;2.50;1.47;;;19.10;1.00;;;;;;5115059;28;20421;-54
2023/08/31 12:31:57;;;;;;;2.50;1.20;;;18.90;1.00;;;;;;5115341;28;20420;-54
2023/08/31 12:34:23;;;;;;;1.83;1.00;;;18.50;1.00;;;;;;5115252;28;20202;-54
2023/08/31 12:36:49;;;;;;;3.10;1.17;;;18.20;1.00;;;;;;5114939;28;20682;-56
2023/08/31 12:39:15;;;;;;;1.63;1.00;;;17.30;1.00;;;;;;5096663;28;20433;-54
2023/08/31 12:41:40;;;;;;;2.50;1.10;;;16.70;1.00;;;;;;5115059;28;20180;-54
2023/08/31 12:44:09;;;;;;;1.53;1.10;;;16.20;1.00;;;;;;5114544;28;20615;-55
2023/08/31 12:46:35;;;;;;;2.17;1.30;;;15.70;1.00;;;;;;5114317;28;20188;-54
2023/08/31 12:49:02;;;;;;;4.00;1.30;;;15.50;1.00;;;;;;5114610;28;20474;-54